createdAt,value
2019-01-15T00:00:04.569Z,0.80
2019-01-15T00:01:04.627Z,0.80
2019-01-15T00:02:04.928Z,0.80
2019-01-15T00:03:04.958Z,0.80
2019-01-15T00:04:05.092Z,0.80
2019-01-15T00:05:04.594Z,0.80
2019-01-15T00:06:04.621Z,0.80
2019-01-15T00:07:04.224Z,0.80
2019-01-15T00:08:04.700Z,0.80
2019-01-15T00:09:05.048Z,0.80
2019-01-15T00:10:04.951Z,0.80
2019-01-15T00:11:04.225Z,0.80
2019-01-15T00:12:07.875Z,0.80
2019-01-15T00:13:04.606Z,0.80
2019-01-15T00:14:05.149Z,0.80
2019-01-15T00:15:04.547Z,0.80
2019-01-15T00:16:04.973Z,0.80
2019-01-15T00:17:04.460Z,0.80
2019-01-15T00:18:04.577Z,0.80
2019-01-15T00:19:04.282Z,0.80
2019-01-15T00:20:04.407Z,0.80
2019-01-15T00:21:05.057Z,0.80
2019-01-15T00:22:04.489Z,0.80
2019-01-15T00:23:04.623Z,0.80
2019-01-15T00:24:05.083Z,0.80
2019-01-15T00:25:04.508Z,0.80
2019-01-15T00:26:05.038Z,0.80
2019-01-15T00:27:04.251Z,0.80
2019-01-15T00:28:04.542Z,0.90
2019-01-15T00:29:09.597Z,0.80
2019-01-15T00:30:05.003Z,0.90
2019-01-15T00:31:04.339Z,0.90
2019-01-15T00:32:04.484Z,0.90
2019-01-15T00:33:04.765Z,0.90
2019-01-15T00:34:05.043Z,0.90
2019-01-15T00:35:04.395Z,0.90
2019-01-15T00:36:04.994Z,0.90
2019-01-15T00:37:04.998Z,0.90
2019-01-15T00:38:05.160Z,0.90
2019-01-15T00:39:04.423Z,0.90
2019-01-15T00:40:05.101Z,0.90
2019-01-15T00:41:04.513Z,0.90
2019-01-15T00:42:04.823Z,0.90
2019-01-15T00:43:05.159Z,0.90
2019-01-15T00:44:04.332Z,0.90
2019-01-15T00:45:04.385Z,0.90
2019-01-15T00:46:04.845Z,0.90
2019-01-15T00:47:04.807Z,0.90
2019-01-15T00:48:04.489Z,0.90
2019-01-15T00:49:04.486Z,0.90
2019-01-15T00:50:04.747Z,0.90
2019-01-15T00:51:04.940Z,0.90
2019-01-15T00:52:05.074Z,0.90
2019-01-15T00:53:04.928Z,1.00
2019-01-15T00:54:05.048Z,0.90
2019-01-15T00:55:04.284Z,0.90
2019-01-15T00:56:04.697Z,0.90
2019-01-15T00:57:04.310Z,0.90
2019-01-15T00:58:04.790Z,0.90
2019-01-15T00:59:04.343Z,1.00
2019-01-15T01:00:04.515Z,1.00
2019-01-15T01:01:04.563Z,1.00
2019-01-15T01:02:04.899Z,1.00
2019-01-15T01:03:05.241Z,1.00
2019-01-15T01:04:05.126Z,1.00
2019-01-15T01:05:05.115Z,1.00
2019-01-15T01:06:04.791Z,1.00
2019-01-15T01:07:04.874Z,1.00
2019-01-15T01:08:05.030Z,1.00
2019-01-15T01:09:04.964Z,1.00
2019-01-15T01:10:05.092Z,1.00
2019-01-15T01:11:04.812Z,1.00
2019-01-15T01:12:04.872Z,1.00
2019-01-15T01:13:05.247Z,1.00
2019-01-15T01:14:04.666Z,1.00
2019-01-15T01:15:04.739Z,1.00
2019-01-15T01:16:04.705Z,1.00
2019-01-15T01:17:05.046Z,1.00
2019-01-15T01:18:05.038Z,1.00
2019-01-15T01:19:05.015Z,1.00
2019-01-15T01:20:05.236Z,1.00
2019-01-15T01:21:05.301Z,1.00
2019-01-15T01:22:05.118Z,1.00
2019-01-15T01:23:04.567Z,1.00
2019-01-15T01:24:04.556Z,1.00
2019-01-15T01:25:04.714Z,1.00
2019-01-15T01:26:04.770Z,1.00
2019-01-15T01:27:05.168Z,1.00
2019-01-15T01:28:04.619Z,1.00
2019-01-15T01:29:04.722Z,1.00
2019-01-15T01:30:04.948Z,1.00
2019-01-15T01:31:04.331Z,1.00
2019-01-15T01:32:04.318Z,1.00
2019-01-15T01:33:05.267Z,1.00
2019-01-15T01:34:04.669Z,1.00
2019-01-15T01:35:04.661Z,1.00
2019-01-15T01:36:04.746Z,1.00
2019-01-15T01:37:04.772Z,1.00
2019-01-15T01:38:04.578Z,1.00
2019-01-15T01:39:04.715Z,1.00
2019-01-15T01:40:04.746Z,1.00
2019-01-15T01:41:04.823Z,1.00
2019-01-15T01:42:04.949Z,1.00
2019-01-15T01:43:05.061Z,1.00
2019-01-15T01:44:05.149Z,1.00
2019-01-15T01:45:05.096Z,1.00
2019-01-15T01:46:10.134Z,1.00
2019-01-15T01:47:04.632Z,1.00
2019-01-15T01:48:04.704Z,1.00
2019-01-15T01:49:04.952Z,1.00
2019-01-15T01:50:05.002Z,1.00
2019-01-15T01:51:04.748Z,1.00
2019-01-15T01:52:04.913Z,1.00
2019-01-15T01:53:04.803Z,1.00
2019-01-15T01:54:04.275Z,1.00
2019-01-15T01:55:05.024Z,1.00
2019-01-15T01:56:05.152Z,1.00
2019-01-15T01:57:05.218Z,1.00
2019-01-15T01:58:04.754Z,1.10
2019-01-15T01:59:04.748Z,1.10
2019-01-15T02:00:04.811Z,1.10
2019-01-15T02:01:05.010Z,1.10
2019-01-15T02:02:04.568Z,1.10
2019-01-15T02:03:04.602Z,1.10
2019-01-15T02:04:05.053Z,1.10
2019-01-15T02:05:05.257Z,1.10
2019-01-15T02:06:04.339Z,1.10
2019-01-15T02:07:04.426Z,1.10
2019-01-15T02:08:04.533Z,1.10
2019-01-15T02:09:04.939Z,1.10
2019-01-15T02:10:04.587Z,1.10
2019-01-15T02:11:04.718Z,1.10
2019-01-15T02:12:05.047Z,1.10
2019-01-15T02:13:04.562Z,1.10
2019-01-15T02:14:04.699Z,1.10
2019-01-15T02:15:05.066Z,1.10
2019-01-15T02:16:04.408Z,1.10
2019-01-15T02:17:04.505Z,1.10
2019-01-15T02:18:04.759Z,1.10
2019-01-15T02:19:04.342Z,1.10
2019-01-15T02:20:04.950Z,1.10
2019-01-15T02:21:05.038Z,1.10
2019-01-15T02:22:05.077Z,1.10
2019-01-15T02:23:05.266Z,1.10
2019-01-15T02:24:04.606Z,1.10
2019-01-15T02:25:04.730Z,1.10
2019-01-15T02:26:04.967Z,1.10
2019-01-15T02:27:04.993Z,1.10
2019-01-15T02:28:04.302Z,1.10
2019-01-15T02:29:10.090Z,1.20
2019-01-15T02:30:04.538Z,1.10
2019-01-15T02:31:04.942Z,1.10
2019-01-15T02:32:04.970Z,1.20
2019-01-15T02:33:05.174Z,1.20
2019-01-15T02:34:04.677Z,1.20
2019-01-15T02:35:04.717Z,1.20
2019-01-15T02:36:04.721Z,1.20
2019-01-15T02:37:04.293Z,1.10
2019-01-15T02:38:04.342Z,1.20
2019-01-15T02:39:05.071Z,1.10
2019-01-15T02:40:04.475Z,1.20
2019-01-15T02:41:05.556Z,1.20
2019-01-15T02:42:05.082Z,1.20
2019-01-15T02:43:04.278Z,1.20
2019-01-15T02:44:04.401Z,1.20
2019-01-15T02:45:04.623Z,1.20
2019-01-15T02:46:04.651Z,1.20
2019-01-15T02:47:04.246Z,1.20
2019-01-15T02:48:04.744Z,1.20
2019-01-15T02:49:04.357Z,1.20
2019-01-15T02:50:04.318Z,1.20
2019-01-15T02:51:04.403Z,1.20
2019-01-15T02:52:04.637Z,1.20
2019-01-15T02:53:04.719Z,1.20
2019-01-15T02:54:04.897Z,1.20
2019-01-15T02:55:04.237Z,1.20
2019-01-15T02:56:04.404Z,1.20
2019-01-15T02:57:04.253Z,1.20
2019-01-15T02:58:04.722Z,1.20
2019-01-15T02:59:05.032Z,1.20
2019-01-15T03:00:04.607Z,1.20
2019-01-15T03:01:04.764Z,1.20
2019-01-15T03:02:05.068Z,1.20
2019-01-15T03:03:04.356Z,1.20
2019-01-15T03:04:04.435Z,1.20
2019-01-15T03:05:04.449Z,1.20
2019-01-15T03:06:05.039Z,1.20
2019-01-15T03:07:04.597Z,1.20
2019-01-15T03:08:04.834Z,1.20
2019-01-15T03:09:04.419Z,1.20
2019-01-15T03:10:04.511Z,1.30
2019-01-15T03:11:05.046Z,1.20
2019-01-15T03:12:04.354Z,1.20
2019-01-15T03:13:04.706Z,1.20
2019-01-15T03:14:04.932Z,1.20
2019-01-15T03:15:05.024Z,1.20
2019-01-15T03:16:05.188Z,1.20
2019-01-15T03:17:04.381Z,1.20
2019-01-15T03:18:04.465Z,1.20
2019-01-15T03:19:04.647Z,1.20
2019-01-15T03:20:04.786Z,1.20
2019-01-15T03:21:04.185Z,1.20
2019-01-15T03:22:04.248Z,1.20
2019-01-15T03:23:04.937Z,1.30
2019-01-15T03:24:05.071Z,1.30
2019-01-15T03:25:05.133Z,1.30
2019-01-15T03:26:04.397Z,1.30
2019-01-15T03:27:04.383Z,1.30
2019-01-15T03:28:04.467Z,1.30
2019-01-15T03:29:09.624Z,1.30
2019-01-15T03:30:04.965Z,1.30
2019-01-15T03:31:06.806Z,1.30
2019-01-15T03:32:06.361Z,1.30
2019-01-15T03:33:05.084Z,1.30
2019-01-15T03:34:05.111Z,1.30
2019-01-15T03:35:04.674Z,1.30
2019-01-15T03:36:05.025Z,1.30
2019-01-15T03:37:04.431Z,1.30
2019-01-15T03:38:04.370Z,1.30
2019-01-15T03:39:04.287Z,1.30
2019-01-15T03:40:04.459Z,1.30
2019-01-15T03:41:05.127Z,1.30
2019-01-15T03:42:05.173Z,1.30
2019-01-15T03:43:05.164Z,1.30
2019-01-15T03:44:04.807Z,1.30
2019-01-15T03:45:05.032Z,1.30
2019-01-15T03:46:05.097Z,1.30
2019-01-15T03:47:05.125Z,1.30
2019-01-15T03:48:05.217Z,1.30
2019-01-15T03:49:04.314Z,1.30
2019-01-15T03:50:04.576Z,1.30
2019-01-15T03:51:04.660Z,1.30
2019-01-15T03:52:04.864Z,1.20
2019-01-15T03:53:04.892Z,1.30
2019-01-15T03:54:04.609Z,1.20
2019-01-15T03:55:04.234Z,1.20
2019-01-15T03:56:05.046Z,1.20
2019-01-15T03:57:05.128Z,1.20
2019-01-15T03:58:05.168Z,1.20
2019-01-15T03:59:04.371Z,1.20
2019-01-15T04:00:04.399Z,1.20
2019-01-15T04:01:05.765Z,1.20
2019-01-15T04:02:04.442Z,1.20
2019-01-15T04:03:04.257Z,1.20
2019-01-15T04:04:04.654Z,1.30
2019-01-15T04:05:05.075Z,1.20
2019-01-15T04:06:04.226Z,1.20
2019-01-15T04:07:04.307Z,1.20
2019-01-15T04:08:04.278Z,1.20
2019-01-15T04:09:04.787Z,1.30
2019-01-15T04:10:05.042Z,1.20
2019-01-15T04:11:04.742Z,1.30
2019-01-15T04:12:05.043Z,1.30
2019-01-15T04:13:11.139Z,1.30
2019-01-15T04:14:05.103Z,1.30
2019-01-15T04:15:04.224Z,1.30
2019-01-15T04:16:04.650Z,1.20
2019-01-15T04:17:05.087Z,1.30
2019-01-15T04:18:04.274Z,1.30
2019-01-15T04:19:04.530Z,1.20
2019-01-15T04:20:04.801Z,1.30
2019-01-15T04:21:05.087Z,1.20
2019-01-15T04:22:04.339Z,1.30
2019-01-15T04:23:04.389Z,1.30
2019-01-15T04:24:04.570Z,1.30
2019-01-15T04:25:04.520Z,1.30
2019-01-15T04:26:05.116Z,1.30
2019-01-15T04:27:04.483Z,1.20
2019-01-15T04:28:04.586Z,1.20
2019-01-15T04:29:14.506Z,1.30
2019-01-15T04:30:04.889Z,1.20
2019-01-15T04:31:05.029Z,1.20
2019-01-15T04:32:04.422Z,1.20
2019-01-15T04:33:04.480Z,1.20
2019-01-15T04:34:04.511Z,1.20
2019-01-15T04:35:04.604Z,1.20
2019-01-15T04:36:04.719Z,1.20
2019-01-15T04:37:05.120Z,1.20
2019-01-15T04:38:04.972Z,1.20
2019-01-15T04:39:05.103Z,1.20
2019-01-15T04:40:04.209Z,1.20
2019-01-15T04:41:04.629Z,1.20
2019-01-15T04:42:05.015Z,1.20
2019-01-15T04:43:05.165Z,1.20
2019-01-15T04:44:04.413Z,1.20
2019-01-15T04:45:04.229Z,1.20
2019-01-15T04:46:04.328Z,1.20
2019-01-15T04:47:04.883Z,1.20
2019-01-15T04:48:05.229Z,1.20
2019-01-15T04:49:04.545Z,1.20
2019-01-15T04:50:04.810Z,1.20
2019-01-15T04:51:04.890Z,1.20
2019-01-15T04:52:05.017Z,1.20
2019-01-15T04:53:05.083Z,1.20
2019-01-15T04:54:05.185Z,1.20
2019-01-15T04:55:04.170Z,1.30
2019-01-15T04:56:04.420Z,1.20
2019-01-15T04:57:04.606Z,1.20
2019-01-15T04:58:04.834Z,1.20
2019-01-15T04:59:04.188Z,1.20
2019-01-15T05:00:04.330Z,1.20
2019-01-15T05:01:04.575Z,1.20
2019-01-15T05:02:04.239Z,1.20
2019-01-15T05:03:04.529Z,1.20
2019-01-15T05:04:04.773Z,1.20
2019-01-15T05:05:04.298Z,1.20
2019-01-15T05:06:04.306Z,1.20
2019-01-15T05:07:04.631Z,1.20
2019-01-15T05:08:04.650Z,1.20
2019-01-15T05:09:05.154Z,1.20
2019-01-15T05:10:04.494Z,1.20
2019-01-15T05:11:04.945Z,1.20
2019-01-15T05:12:04.822Z,1.20
2019-01-15T05:13:04.912Z,1.20
2019-01-15T05:14:04.283Z,1.20
2019-01-15T05:15:04.454Z,1.20
2019-01-15T05:16:04.477Z,1.20
2019-01-15T05:17:04.497Z,1.20
2019-01-15T05:18:04.647Z,1.20
2019-01-15T05:19:04.707Z,1.20
2019-01-15T05:20:04.834Z,1.20
2019-01-15T05:21:04.852Z,1.20
2019-01-15T05:22:05.109Z,1.20
2019-01-15T05:23:05.158Z,1.20
2019-01-15T05:24:04.199Z,1.20
2019-01-15T05:25:05.190Z,1.20
2019-01-15T05:26:05.221Z,1.20
2019-01-15T05:27:04.378Z,1.20
2019-01-15T05:28:05.061Z,1.20
2019-01-15T05:29:10.093Z,1.20
2019-01-15T05:30:04.470Z,1.20
2019-01-15T05:31:04.758Z,1.30
2019-01-15T05:32:04.876Z,1.20
2019-01-15T05:33:04.300Z,1.30
2019-01-15T05:34:04.861Z,1.30
2019-01-15T05:35:05.151Z,1.30
2019-01-15T05:36:05.129Z,1.30
2019-01-15T05:37:04.313Z,1.30
2019-01-15T05:38:04.361Z,1.30
2019-01-15T05:39:04.513Z,1.20
2019-01-15T05:40:04.180Z,1.30
2019-01-15T05:41:04.355Z,1.20
2019-01-15T05:42:04.608Z,1.30
2019-01-15T05:43:04.988Z,1.20
2019-01-15T05:44:05.068Z,1.30
2019-01-15T05:45:05.186Z,1.30
2019-01-15T05:46:04.189Z,1.20
2019-01-15T05:47:04.792Z,1.30
2019-01-15T05:48:05.052Z,1.30
2019-01-15T05:49:05.235Z,1.30
2019-01-15T05:50:04.350Z,1.30
2019-01-15T05:51:04.702Z,1.30
2019-01-15T05:52:04.764Z,1.30
2019-01-15T05:53:04.220Z,1.30
2019-01-15T05:54:04.423Z,1.30
2019-01-15T05:55:04.970Z,1.30
2019-01-15T05:56:04.304Z,1.30
2019-01-15T05:57:04.878Z,1.30
2019-01-15T05:58:05.056Z,1.30
2019-01-15T05:59:05.136Z,1.30
2019-01-15T06:00:04.659Z,1.30
2019-01-15T06:01:04.702Z,1.30
2019-01-15T06:02:04.728Z,1.20
2019-01-15T06:03:05.321Z,1.30
2019-01-15T06:04:04.648Z,1.30
2019-01-15T06:05:04.383Z,1.30
2019-01-15T06:06:04.396Z,1.30
2019-01-15T06:07:04.537Z,1.30
2019-01-15T06:08:04.734Z,1.30
2019-01-15T06:09:04.707Z,1.30
2019-01-15T06:10:04.736Z,1.20
2019-01-15T06:11:04.925Z,1.20
2019-01-15T06:12:04.917Z,1.30
2019-01-15T06:13:05.110Z,1.30
2019-01-15T06:14:05.129Z,1.30
2019-01-15T06:15:05.109Z,1.30
2019-01-15T06:16:05.048Z,1.20
2019-01-15T06:17:05.264Z,1.20
2019-01-15T06:18:04.179Z,1.30
2019-01-15T06:19:04.406Z,1.20
2019-01-15T06:20:04.715Z,1.20
2019-01-15T06:21:04.939Z,1.20
2019-01-15T06:22:04.524Z,1.20
2019-01-15T06:23:04.766Z,1.20
2019-01-15T06:24:05.071Z,1.20
2019-01-15T06:25:05.131Z,1.20
2019-01-15T06:26:04.544Z,1.20
2019-01-15T06:27:04.646Z,1.20
2019-01-15T06:28:04.616Z,1.20
2019-01-15T06:29:10.259Z,1.20
2019-01-15T06:30:04.739Z,1.20
2019-01-15T06:31:04.763Z,1.20
2019-01-15T06:32:04.290Z,1.20
2019-01-15T06:33:04.643Z,1.20
2019-01-15T06:34:04.985Z,1.20
2019-01-15T06:35:05.037Z,1.20
2019-01-15T06:36:04.382Z,1.20
2019-01-15T06:37:04.685Z,1.20
2019-01-15T06:38:04.422Z,1.20
2019-01-15T06:39:04.600Z,1.20
2019-01-15T06:40:05.121Z,1.20
2019-01-15T06:41:04.255Z,1.20
2019-01-15T06:42:04.819Z,1.20
2019-01-15T06:43:04.839Z,1.20
2019-01-15T06:44:04.919Z,1.20
2019-01-15T06:45:05.070Z,1.20
2019-01-15T06:46:04.244Z,1.20
2019-01-15T06:47:04.297Z,1.20
2019-01-15T06:48:04.394Z,1.20
2019-01-15T06:49:05.024Z,1.20
2019-01-15T06:50:05.160Z,1.20
2019-01-15T06:51:04.427Z,1.20
2019-01-15T06:52:04.760Z,1.20
2019-01-15T06:53:09.808Z,1.20
2019-01-15T06:54:05.060Z,1.20
2019-01-15T06:55:05.032Z,1.20
2019-01-15T06:56:04.579Z,1.20
2019-01-15T06:57:04.739Z,1.20
2019-01-15T06:58:04.819Z,1.20
2019-01-15T06:59:04.906Z,1.20
2019-01-15T07:00:04.379Z,1.20
2019-01-15T07:01:04.789Z,1.20
2019-01-15T07:02:04.821Z,1.20
2019-01-15T07:03:05.017Z,1.20
2019-01-15T07:04:05.037Z,1.20
2019-01-15T07:05:05.163Z,1.20
2019-01-15T07:06:04.349Z,1.20
2019-01-15T07:07:04.927Z,1.20
2019-01-15T07:08:05.028Z,1.20
2019-01-15T07:09:05.239Z,1.20
2019-01-15T07:10:05.195Z,1.20
2019-01-15T07:11:04.410Z,1.20
2019-01-15T07:12:04.543Z,1.20
2019-01-15T07:13:04.400Z,1.20
2019-01-15T07:14:04.608Z,1.20
2019-01-15T07:15:04.576Z,1.20
2019-01-15T07:16:05.073Z,1.20
2019-01-15T07:17:04.969Z,1.20
2019-01-15T07:18:05.059Z,1.20
2019-01-15T07:19:05.081Z,1.20
2019-01-15T07:20:04.278Z,1.20
2019-01-15T07:21:04.850Z,1.20
2019-01-15T07:22:04.936Z,1.20
2019-01-15T07:23:05.012Z,1.20
2019-01-15T07:24:05.266Z,1.20
2019-01-15T07:25:04.392Z,1.20
2019-01-15T07:26:04.355Z,1.20
2019-01-15T07:27:04.445Z,1.20
2019-01-15T07:28:04.619Z,1.20
2019-01-15T07:29:09.837Z,1.20
2019-01-15T07:30:04.257Z,1.20
2019-01-15T07:31:04.399Z,1.20
2019-01-15T07:32:04.698Z,1.20
2019-01-15T07:33:04.944Z,1.20
2019-01-15T07:34:05.222Z,1.20
2019-01-15T07:35:04.880Z,1.20
2019-01-15T07:36:05.004Z,1.20
2019-01-15T07:37:04.333Z,1.20
2019-01-15T07:38:04.508Z,1.30
2019-01-15T07:39:04.423Z,1.20
2019-01-15T07:40:04.672Z,1.20
2019-01-15T07:41:04.565Z,1.30
2019-01-15T07:42:05.130Z,1.30
2019-01-15T07:43:05.110Z,1.30
2019-01-15T07:44:05.051Z,1.30
2019-01-15T07:45:04.383Z,1.30
2019-01-15T07:46:04.960Z,1.30
2019-01-15T07:47:04.382Z,1.30
2019-01-15T07:48:04.847Z,1.30
2019-01-15T07:49:04.842Z,1.30
2019-01-15T07:50:05.025Z,1.30
2019-01-15T07:51:04.922Z,1.30
2019-01-15T07:52:05.071Z,1.30
2019-01-15T07:53:05.201Z,1.30
2019-01-15T07:54:04.428Z,1.30
2019-01-15T07:55:04.677Z,1.30
2019-01-15T07:56:04.378Z,1.30
2019-01-15T07:57:05.083Z,1.30
2019-01-15T07:58:05.119Z,1.30
2019-01-15T07:59:05.056Z,1.30
2019-01-15T08:00:04.224Z,1.30
2019-01-15T08:01:09.511Z,1.40
2019-01-15T08:02:04.872Z,1.40
2019-01-15T08:03:04.855Z,1.40
2019-01-15T08:04:04.503Z,1.40
2019-01-15T08:05:04.738Z,1.40
2019-01-15T08:06:04.710Z,1.40
2019-01-15T08:07:04.651Z,1.40
2019-01-15T08:08:04.737Z,1.40
2019-01-15T08:09:04.187Z,1.40
2019-01-15T08:10:04.286Z,1.40
2019-01-15T08:11:04.604Z,1.40
2019-01-15T08:12:04.719Z,1.50
2019-01-15T08:13:04.965Z,1.50
2019-01-15T08:14:11.651Z,1.50
2019-01-15T08:15:04.752Z,1.50
2019-01-15T08:16:04.933Z,1.50
2019-01-15T08:17:05.442Z,1.50
2019-01-15T08:18:05.251Z,1.50
2019-01-15T08:19:04.220Z,1.50
2019-01-15T08:20:04.318Z,1.50
2019-01-15T08:21:04.375Z,1.60
2019-01-15T08:22:04.547Z,1.60
2019-01-15T08:23:04.622Z,1.60
2019-01-15T08:24:04.536Z,1.60
2019-01-15T08:25:04.632Z,1.60
2019-01-15T08:26:04.747Z,1.60
2019-01-15T08:27:04.742Z,1.60
2019-01-15T08:28:04.814Z,1.70
2019-01-15T08:29:09.214Z,1.70
2019-01-15T08:30:04.638Z,1.70
2019-01-15T08:31:04.621Z,1.70
2019-01-15T08:32:04.722Z,1.70
2019-01-15T08:33:04.443Z,1.70
2019-01-15T08:34:04.642Z,1.70
2019-01-15T08:35:04.631Z,1.70
2019-01-15T08:36:04.666Z,1.80
2019-01-15T08:37:04.787Z,1.80
2019-01-15T08:38:04.988Z,1.80
2019-01-15T08:39:04.915Z,1.80
2019-01-15T08:40:05.216Z,1.80
2019-01-15T08:41:04.263Z,1.80
2019-01-15T08:42:04.874Z,1.80
2019-01-15T08:43:04.294Z,1.80
2019-01-15T08:44:04.418Z,1.80
2019-01-15T08:45:05.109Z,1.90
2019-01-15T08:46:04.606Z,1.90
2019-01-15T08:47:04.946Z,1.90
2019-01-15T08:48:04.791Z,1.90
2019-01-15T08:49:09.712Z,1.90
2019-01-15T08:50:05.249Z,1.90
2019-01-15T08:51:04.215Z,1.90
2019-01-15T08:52:04.290Z,1.90
2019-01-15T08:53:04.901Z,1.90
2019-01-15T08:54:05.051Z,1.90
2019-01-15T08:55:04.920Z,1.90
2019-01-15T08:56:04.451Z,2.00
2019-01-15T08:57:04.961Z,2.00
2019-01-15T08:58:04.317Z,2.00
2019-01-15T08:59:04.534Z,2.00
2019-01-15T09:00:04.544Z,2.00
2019-01-15T09:01:04.985Z,2.00
2019-01-15T09:02:05.051Z,2.00
2019-01-15T09:03:05.286Z,2.10
2019-01-15T09:04:04.226Z,2.10
2019-01-15T09:05:04.402Z,2.10
2019-01-15T09:06:04.968Z,2.10
2019-01-15T09:07:04.945Z,2.10
2019-01-15T09:08:05.003Z,2.10
2019-01-15T09:09:05.292Z,2.20
2019-01-15T09:10:04.812Z,2.20
2019-01-15T09:11:04.778Z,2.20
2019-01-15T09:12:05.137Z,2.20
2019-01-15T09:13:04.501Z,2.20
2019-01-15T09:14:04.658Z,2.20
2019-01-15T09:15:04.568Z,2.30
2019-01-15T09:16:05.028Z,2.30
2019-01-15T09:17:10.769Z,2.30
2019-01-15T09:18:04.797Z,2.30
2019-01-15T09:19:05.044Z,2.30
2019-01-15T09:20:04.894Z,2.30
2019-01-15T09:21:04.665Z,2.30
2019-01-15T09:22:04.916Z,2.30
2019-01-15T09:23:04.447Z,2.30
2019-01-15T09:24:04.633Z,2.30
2019-01-15T09:25:04.686Z,2.30
2019-01-15T09:26:06.056Z,2.40
2019-01-15T09:27:04.660Z,2.40
2019-01-15T09:28:04.722Z,2.40
2019-01-15T09:29:09.360Z,2.40
2019-01-15T09:30:04.809Z,2.40
2019-01-15T09:31:05.075Z,2.40
2019-01-15T09:32:05.077Z,2.50
2019-01-15T09:33:05.104Z,2.50
2019-01-15T09:34:04.241Z,2.50
2019-01-15T09:35:04.357Z,2.50
2019-01-15T09:36:04.720Z,2.50
2019-01-15T09:37:05.171Z,2.50
2019-01-15T09:38:04.332Z,2.50
2019-01-15T09:39:04.848Z,2.50
2019-01-15T09:40:04.616Z,2.50
2019-01-15T09:41:05.223Z,2.50
2019-01-15T09:42:05.122Z,2.50
2019-01-15T09:43:04.387Z,2.50
2019-01-15T09:44:04.546Z,2.60
2019-01-15T09:45:04.679Z,2.60
2019-01-15T09:46:04.781Z,2.60
2019-01-15T09:47:04.290Z,2.60
2019-01-15T09:48:04.372Z,2.60
2019-01-15T09:49:04.734Z,2.60
2019-01-15T09:50:04.914Z,2.60
2019-01-15T09:51:05.091Z,2.60
2019-01-15T09:52:04.477Z,2.60
2019-01-15T09:53:04.967Z,2.60
2019-01-15T09:54:05.166Z,2.70
2019-01-15T09:55:04.734Z,2.70
2019-01-15T09:56:04.937Z,2.70
2019-01-15T09:57:04.961Z,2.70
2019-01-15T09:58:05.194Z,2.70
2019-01-15T09:59:05.704Z,2.70
2019-01-15T10:00:04.928Z,2.70
2019-01-15T10:01:10.015Z,2.70
2019-01-15T10:02:04.427Z,2.70
2019-01-15T10:03:04.333Z,2.70
2019-01-15T10:04:04.945Z,2.80
2019-01-15T10:05:04.879Z,2.80
2019-01-15T10:06:05.053Z,2.80
2019-01-15T10:07:04.985Z,2.80
2019-01-15T10:08:05.148Z,2.80
2019-01-15T10:09:05.172Z,2.80
2019-01-15T10:10:04.439Z,2.80
2019-01-15T10:11:04.462Z,2.80
2019-01-15T10:12:04.409Z,2.90
2019-01-15T10:13:04.473Z,2.80
2019-01-15T10:14:04.518Z,2.80
2019-01-15T10:15:04.410Z,2.90
2019-01-15T10:16:04.489Z,2.90
2019-01-15T10:17:04.926Z,2.90
2019-01-15T10:18:04.927Z,2.90
2019-01-15T10:19:04.942Z,2.90
2019-01-15T10:20:05.077Z,2.80
2019-01-15T10:21:04.527Z,2.80
2019-01-15T10:22:04.209Z,2.80
2019-01-15T10:23:04.562Z,2.80
2019-01-15T10:24:04.280Z,2.80
2019-01-15T10:25:04.690Z,2.80
2019-01-15T10:26:04.340Z,2.80
2019-01-15T10:27:04.196Z,2.80
2019-01-15T10:28:04.448Z,2.80
2019-01-15T10:29:09.576Z,2.80
2019-01-15T10:30:04.956Z,2.80
2019-01-15T10:31:04.311Z,2.80
2019-01-15T10:32:04.176Z,2.80
2019-01-15T10:33:04.220Z,2.80
2019-01-15T10:34:04.774Z,2.80
2019-01-15T10:35:04.719Z,2.80
2019-01-15T10:36:04.925Z,2.80
2019-01-15T10:37:04.913Z,2.80
2019-01-15T10:38:04.604Z,2.90
2019-01-15T10:39:04.383Z,2.90
2019-01-15T10:40:04.525Z,2.90
2019-01-15T10:41:05.066Z,2.90
2019-01-15T10:42:04.541Z,2.90
2019-01-15T10:43:04.621Z,2.90
2019-01-15T10:44:04.735Z,2.90
2019-01-15T10:45:04.160Z,2.90
2019-01-15T10:46:04.281Z,2.90
2019-01-15T10:47:04.205Z,2.90
2019-01-15T10:48:04.732Z,2.90
2019-01-15T10:49:05.173Z,2.90
2019-01-15T10:50:05.299Z,2.90
2019-01-15T10:51:04.629Z,3.00
2019-01-15T10:52:04.241Z,2.90
2019-01-15T10:53:04.502Z,3.00
2019-01-15T10:54:04.957Z,3.00
2019-01-15T10:55:04.738Z,3.00
2019-01-15T10:56:04.844Z,3.00
2019-01-15T10:57:04.880Z,3.00
2019-01-15T10:58:05.018Z,3.00
2019-01-15T10:59:04.837Z,3.00
2019-01-15T11:00:05.105Z,3.00
2019-01-15T11:01:05.042Z,3.00
2019-01-15T11:02:04.241Z,3.00
2019-01-15T11:03:04.486Z,3.00
2019-01-15T11:04:04.699Z,3.00
2019-01-15T11:05:05.064Z,3.00
2019-01-15T11:06:05.089Z,3.00
2019-01-15T11:07:04.591Z,3.10
2019-01-15T11:08:05.039Z,3.10
2019-01-15T11:09:05.056Z,3.10
2019-01-15T11:10:05.054Z,3.10
2019-01-15T11:11:05.232Z,3.10
2019-01-15T11:12:04.553Z,3.10
2019-01-15T11:13:04.623Z,3.10
2019-01-15T11:14:04.722Z,3.20
2019-01-15T11:15:04.929Z,3.20
2019-01-15T11:16:04.863Z,3.20
2019-01-15T11:17:04.425Z,3.20
2019-01-15T11:18:04.578Z,3.20
2019-01-15T11:19:04.627Z,3.20
2019-01-15T11:20:05.158Z,3.30
2019-01-15T11:21:04.782Z,3.20
2019-01-15T11:22:04.796Z,3.30
2019-01-15T11:23:04.952Z,3.30
2019-01-15T11:24:05.229Z,3.30
2019-01-15T11:25:04.613Z,3.30
2019-01-15T11:26:04.717Z,3.30
2019-01-15T11:27:05.078Z,3.30
2019-01-15T11:28:04.411Z,3.30
2019-01-15T11:29:04.346Z,3.30
2019-01-15T11:30:04.416Z,3.30
2019-01-15T11:31:04.916Z,3.30
2019-01-15T11:32:04.500Z,3.30
2019-01-15T11:33:04.442Z,3.30
2019-01-15T11:34:04.557Z,3.30
2019-01-15T11:35:04.467Z,3.30
2019-01-15T11:36:04.546Z,3.30
2019-01-15T11:37:04.656Z,3.40
2019-01-15T11:38:04.544Z,3.40
2019-01-15T11:39:04.476Z,3.40
2019-01-15T11:40:04.606Z,3.40
2019-01-15T11:41:05.080Z,3.40
2019-01-15T11:42:05.023Z,3.40
2019-01-15T11:43:09.649Z,3.40
2019-01-15T11:44:05.177Z,3.40
2019-01-15T11:45:04.631Z,3.40
2019-01-15T11:46:04.653Z,3.40
2019-01-15T11:47:04.770Z,3.40
2019-01-15T11:48:04.342Z,3.40
2019-01-15T11:49:04.226Z,3.50
2019-01-15T11:50:04.418Z,3.50
2019-01-15T11:51:04.910Z,3.50
2019-01-15T11:52:04.295Z,3.50
2019-01-15T11:53:04.822Z,3.50
2019-01-15T11:54:04.893Z,3.50
2019-01-15T11:55:04.364Z,3.50
2019-01-15T11:56:04.543Z,3.50
2019-01-15T11:57:05.081Z,3.50
2019-01-15T11:58:04.362Z,3.50
2019-01-15T11:59:04.667Z,3.50
2019-01-15T12:00:04.647Z,3.50
2019-01-15T12:01:04.767Z,3.50
2019-01-15T12:02:05.109Z,3.50
2019-01-15T12:03:04.527Z,3.50
2019-01-15T12:04:05.094Z,3.60
2019-01-15T12:05:05.064Z,3.60
2019-01-15T12:06:04.645Z,3.60
2019-01-15T12:07:04.849Z,3.60
2019-01-15T12:08:04.502Z,3.60
2019-01-15T12:09:04.807Z,3.60
2019-01-15T12:10:04.995Z,3.60
2019-01-15T12:11:05.034Z,3.60
2019-01-15T12:12:04.424Z,3.60
2019-01-15T12:13:05.014Z,3.60
2019-01-15T12:14:05.005Z,3.60
2019-01-15T12:15:10.718Z,3.60
2019-01-15T12:16:04.628Z,3.60
2019-01-15T12:17:04.860Z,3.60
2019-01-15T12:18:04.482Z,3.60
2019-01-15T12:19:04.570Z,3.60
2019-01-15T12:20:04.816Z,3.60
2019-01-15T12:21:05.081Z,3.60
2019-01-15T12:22:04.639Z,3.60
2019-01-15T12:23:04.690Z,3.60
2019-01-15T12:24:05.273Z,3.60
2019-01-15T12:25:04.926Z,3.60
2019-01-15T12:26:04.241Z,3.60
2019-01-15T12:27:04.402Z,3.60
2019-01-15T12:28:05.025Z,3.60
2019-01-15T12:29:09.445Z,3.60
2019-01-15T12:30:04.925Z,3.60
2019-01-15T12:31:05.141Z,3.60
2019-01-15T12:32:05.303Z,3.60
2019-01-15T12:33:04.290Z,3.60
2019-01-15T12:34:04.823Z,3.60
2019-01-15T12:35:04.859Z,3.60
2019-01-15T12:36:04.368Z,3.60
2019-01-15T12:37:04.849Z,3.60
2019-01-15T12:38:04.867Z,3.60
2019-01-15T12:39:04.967Z,3.60
2019-01-15T12:40:04.967Z,3.60
2019-01-15T12:41:05.163Z,3.60
2019-01-15T12:42:04.598Z,3.60
2019-01-15T12:43:04.559Z,3.60
2019-01-15T12:44:04.970Z,3.60
2019-01-15T12:45:05.086Z,3.60
2019-01-15T12:46:05.076Z,3.60
2019-01-15T12:47:05.206Z,3.60
2019-01-15T12:48:04.186Z,3.60
2019-01-15T12:49:09.661Z,3.60
2019-01-15T12:50:05.176Z,3.60
2019-01-15T12:51:04.218Z,3.60
2019-01-15T12:52:04.661Z,3.60
2019-01-15T12:53:04.811Z,3.60
2019-01-15T12:54:04.850Z,3.60
2019-01-15T12:55:05.088Z,3.60
2019-01-15T12:56:04.568Z,3.60
2019-01-15T12:57:04.937Z,3.60
2019-01-15T12:58:04.983Z,3.60
2019-01-15T12:59:05.222Z,3.60
2019-01-15T13:00:05.207Z,3.60
2019-01-15T13:01:04.618Z,3.60
2019-01-15T13:02:04.993Z,3.60
2019-01-15T13:03:04.461Z,3.60
2019-01-15T13:04:05.148Z,3.60
2019-01-15T13:05:05.082Z,3.60
2019-01-15T13:06:04.249Z,3.60
2019-01-15T13:07:04.574Z,3.60
2019-01-15T13:08:04.690Z,3.60
2019-01-15T13:09:04.665Z,3.60
2019-01-15T13:10:04.902Z,3.60
2019-01-15T13:11:04.253Z,3.60
2019-01-15T13:12:04.600Z,3.60
2019-01-15T13:13:04.638Z,3.60
2019-01-15T13:14:04.671Z,3.60
2019-01-15T13:15:04.318Z,3.60
2019-01-15T13:16:04.570Z,3.60
2019-01-15T13:17:04.585Z,3.60
2019-01-15T13:18:04.641Z,3.70